Time;durP1;ratioP1;P1;durP2;ratioP2;P2;SDS_P1;SDS_P2;PMS_P1;PMS_P2;Temp;Humidity;BMP_temperature;BMP_pressure;BME280_temperature;BME280_humidity;BME280_pressure;Samples;Min_cycle;Max_cycle;Signal;HPM_P1;HPM_P2
2022/03/12 00:00:31;;;;;;;0.60;0.60;;;;;;;3.97;42.52;96921.34;29373;202;63009;-64
2022/03/12 00:01:04;;;;;;;1.02;1.02;;;;;;;3.96;42.40;96920.53;29373;196;63010;-65
2022/03/12 00:01:36;;;;;;;0.60;0.60;;;;;;;3.96;42.59;96919.72;29371;202;64013;-66
2022/03/12 00:02:07;;;;;;;0.70;0.70;;;;;;;3.95;42.47;96921.59;29373;215;63004;-67
2022/03/12 00:02:39;;;;;;;1.00;1.00;;;;;;;3.94;42.43;96919.97;29373;199;63009;-66
2022/03/12 00:03:11;;;;;;;0.60;0.60;;;;;;;3.94;42.43;96925.34;29373;227;63004;-63
2022/03/12 00:03:43;;;;;;;0.60;0.60;;;;;;;3.95;42.68;96926.97;29373;219;63009;-66
2022/03/12 00:04:14;;;;;;;1.25;1.25;;;;;;;3.96;42.45;96927.78;29373;244;63004;-67
2022/03/12 00:04:45;;;;;;;0.60;0.60;;;;;;;3.94;42.63;96925.34;29373;218;63008;-68
2022/03/12 00:05:18;;;;;;;0.50;0.50;;;;;;;3.94;42.37;96928.03;29373;232;63005;-65
2022/03/12 00:05:54;;;;;;;0.60;0.60;;;;;;;3.94;42.69;96929.91;29373;203;63009;-66
2022/03/12 00:06:26;;;;;;;0.60;0.60;;;;;;;3.93;42.47;96923.72;29373;247;63005;-66
2022/03/12 00:06:58;;;;;;;0.60;0.60;;;;;;;3.91;42.69;96928.53;29371;307;64013;-65
2022/03/12 00:07:30;;;;;;;0.60;0.60;;;;;;;3.90;42.78;96929.59;29371;233;64009;-65
2022/03/12 00:08:06;;;;;;;0.60;0.60;;;;;;;3.90;42.90;96934.97;29373;246;63009;-64
2022/03/12 00:08:42;;;;;;;0.60;0.60;;;;;;;3.90;42.73;96940.31;29373;242;63005;-67
2022/03/12 00:09:13;;;;;;;0.60;0.60;;;;;;;3.87;42.84;96940.81;29372;210;63009;-66
2022/03/12 00:09:44;;;;;;;0.60;0.60;;;;;;;3.87;42.87;96930.09;29373;222;63004;-67
2022/03/12 00:10:18;;;;;;;0.50;0.50;;;;;;;3.86;42.83;96931.16;29373;206;63009;-66
2022/03/12 00:10:51;;;;;;;0.60;0.60;;;;;;;3.85;42.86;96942.13;29373;226;63004;-66
2022/03/12 00:11:29;;;;;;;0.60;0.60;;;;;;;3.83;43.11;96939.69;29373;211;63008;-65
2022/03/12 00:12:09;;;;;;;0.60;0.60;;;;;;;3.81;43.36;96947.19;29371;235;64008;-65
2022/03/12 00:12:41;;;;;;;0.52;0.52;;;;;;;3.81;43.26;96936.44;29373;225;63008;-67
2022/03/12 00:13:15;;;;;;;0.60;0.60;;;;;;;3.81;43.25;96935.66;29373;203;63005;-67
2022/03/12 00:13:48;;;;;;;0.50;0.50;;;;;;;3.80;43.32;96929.47;29373;275;63017;-64
2022/03/12 00:14:22;;;;;;;0.60;0.60;;;;;;;3.82;43.27;96937.25;29373;211;63005;-67
2022/03/12 00:14:54;;;;;;;0.60;0.60;;;;;;;3.83;42.96;96934.31;29373;202;63009;-65
2022/03/12 00:15:26;;;;;;;0.60;0.60;;;;;;;3.84;43.29;96929.75;29373;224;63005;-64
2022/03/12 00:15:58;;;;;;;0.60;0.60;;;;;;;3.85;43.14;96939.44;29373;241;63009;-66
2022/03/12 00:16:33;;;;;;;0.60;0.60;;;;;;;3.87;43.03;96935.44;29373;197;63004;-67
2022/03/12 00:17:06;;;;;;;0.60;0.60;;;;;;;3.87;42.93;96932.78;29371;199;64013;-65
2022/03/12 00:17:39;;;;;;;0.60;0.60;;;;;;;3.86;42.72;96931.16;29373;206;63004;-64
2022/03/12 00:18:11;;;;;;;0.50;0.50;;;;;;;3.86;43.09;96938.38;29373;210;63009;-66
2022/03/12 00:18:44;;;;;;;0.60;0.60;;;;;;;3.86;43.07;96927.66;29373;259;63004;-67
2022/03/12 00:19:16;;;;;;;0.60;0.60;;;;;;;3.86;42.79;96939.19;29373;196;63008;-63
2022/03/12 00:19:51;;;;;;;0.60;0.60;;;;;;;3.86;42.79;96939.19;29373;208;63005;-67
2022/03/12 00:20:28;;;;;;;0.60;0.60;;;;;;;3.84;42.87;96943.19;29373;220;63009;-66
2022/03/12 00:21:02;;;;;;;1.85;1.85;;;;;;;3.85;43.12;96937.56;29373;232;63005;-63
2022/03/12 00:21:39;;;;;;;0.60;0.60;;;;;;;3.85;42.94;96937.56;29373;229;63009;-67
2022/03/12 00:22:12;;;;;;;0.60;0.60;;;;;;;3.88;42.79;96942.44;29371;202;64009;-67
2022/03/12 00:22:47;;;;;;;0.60;0.60;;;;;;;3.89;42.67;96944.06;29372;252;63009;-67
2022/03/12 00:23:20;;;;;;;0.60;0.60;;;;;;;3.89;42.96;96943.25;29373;222;63005;-65
2022/03/12 00:23:54;;;;;;;0.52;0.52;;;;;;;3.88;42.71;96936.25;29373;207;63009;-67
2022/03/12 00:24:29;;;;;;;0.60;0.60;;;;;;;3.87;42.90;96946.19;29373;204;63004;-66
2022/03/12 00:25:00;;;;;;;0.60;0.60;;;;;;;3.87;43.00;96946.19;29373;214;63009;-66
2022/03/12 00:25:31;;;;;;;0.55;0.55;;;;;;;3.86;43.06;96947.25;29373;250;63007;-66
2022/03/12 00:26:03;;;;;;;0.60;0.60;;;;;;;3.86;43.06;96949.94;29371;250;64013;-67
2022/03/12 00:26:37;;;;;;;0.60;0.60;;;;;;;3.85;43.12;96953.69;29372;218;63004;-67
2022/03/12 00:27:10;;;;;;;0.60;0.60;;;;;;;3.82;43.70;96954.16;29371;211;64030;-63
2022/03/12 00:27:41;;;;;;;0.60;0.60;;;;;;;3.80;43.26;96956.31;29373;212;63005;-66
2022/03/12 00:28:13;;;;;;;0.60;0.60;;;;;;;3.79;43.52;96954.69;29373;249;63009;-67
2022/03/12 00:28:45;;;;;;;0.60;0.60;;;;;;;3.77;43.73;96964.88;29373;251;63005;-67
2022/03/12 00:29:16;;;;;;;0.50;0.50;;;;;;;3.75;44.18;96952.75;29373;228;63009;-67
2022/03/12 00:29:48;;;;;;;0.60;0.60;;;;;;;3.73;44.02;96966.41;29373;228;63011;-67
2022/03/12 00:30:22;;;;;;;0.60;0.60;;;;;;;3.71;44.33;96963.16;29373;204;63009;-67
2022/03/12 00:30:54;;;;;;;0.60;0.60;;;;;;;3.67;44.61;96965.53;29373;206;63005;-68
2022/03/12 00:31:26;;;;;;;0.57;0.57;;;;;;;3.65;45.22;96966.81;29373;209;63009;-67
2022/03/12 00:31:57;;;;;;;1.23;1.23;;;;;;;3.62;44.60;96968.13;29373;224;63004;-67
2022/03/12 00:32:30;;;;;;;0.60;0.60;;;;;;;3.62;45.43;96972.69;29371;222;64013;-66
2022/03/12 00:33:01;;;;;;;0.60;0.60;;;;;;;3.59;45.16;96981.22;29373;202;63004;-67
2022/03/12 00:33:33;;;;;;;1.05;1.02;;;;;;;3.56;44.67;96961.06;29373;263;63009;-68
2022/03/12 00:34:04;;;;;;;1.10;0.82;;;;;;;3.58;45.00;96968.88;29373;264;63004;-66
2022/03/12 00:34:35;;;;;;;0.77;0.77;;;;;;;3.56;45.38;96970.97;29373;196;63009;-68
2022/03/12 00:35:10;;;;;;;0.90;0.90;;;;;;;3.50;45.08;96966.59;29373;213;63005;-65
2022/03/12 00:35:41;;;;;;;1.12;1.12;;;;;;;3.48;44.63;96968.72;29373;209;63013;-67
2022/03/12 00:36:14;;;;;;;0.60;0.60;;;;;;;3.47;44.84;96961.72;29373;270;63005;-65
2022/03/12 00:36:46;;;;;;;0.60;0.60;;;;;;;3.51;44.41;96960.16;29373;221;63009;-64
2022/03/12 00:37:17;;;;;;;0.60;0.60;;;;;;;3.55;44.08;96956.75;29371;245;64009;-64
2022/03/12 00:37:49;;;;;;;0.88;0.88;;;;;;;3.60;44.10;96961.38;29373;198;63009;-67
2022/03/12 00:38:22;;;;;;;0.60;0.60;;;;;;;3.64;44.15;96951.78;29373;206;63005;-65
2022/03/12 00:38:54;;;;;;;0.60;0.60;;;;;;;3.67;43.86;96957.47;29371;226;64013;-64
2022/03/12 00:39:25;;;;;;;0.60;0.60;;;;;;;3.72;43.62;96959.41;29373;228;63004;-66
2022/03/12 00:39:57;;;;;;;0.60;0.60;;;;;;;3.76;43.34;96949.00;29373;197;63009;-65
2022/03/12 00:40:29;;;;;;;0.60;0.60;;;;;;;3.81;43.22;96952.53;29373;199;63004;-66
2022/03/12 00:41:02;;;;;;;0.60;0.60;;;;;;;3.84;43.18;96946.69;29373;296;63009;-66
2022/03/12 00:41:33;;;;;;;0.60;0.60;;;;;;;3.84;43.23;96952.06;29373;215;63004;-67
2022/03/12 00:42:05;;;;;;;0.50;0.50;;;;;;;3.84;43.32;96952.06;29373;233;63008;-66
2022/03/12 00:42:44;;;;;;;0.50;0.50;;;;;;;3.83;42.96;96945.06;29371;268;64009;-64
2022/03/12 00:43:18;;;;;;;0.50;0.50;;;;;;;3.85;43.29;96948.31;29373;211;63009;-63
2022/03/12 00:43:49;;;;;;;0.60;0.60;;;;;;;3.86;43.24;96944.56;29373;212;63005;-66
2022/03/12 00:44:21;;;;;;;0.60;0.60;;;;;;;3.87;42.94;96948.06;29373;266;63009;-65
2022/03/12 00:44:52;;;;;;;0.60;0.60;;;;;;;3.85;42.99;96947.50;29373;212;63005;-64
2022/03/12 00:45:24;;;;;;;0.60;0.60;;;;;;;3.83;43.30;96945.06;29373;216;63009;-64
2022/03/12 00:45:56;;;;;;;0.60;0.60;;;;;;;3.82;43.29;96943.44;29373;223;63005;-66
2022/03/12 00:46:27;;;;;;;0.60;0.60;;;;;;;3.81;43.31;96951.75;29373;202;63009;-62
2022/03/12 00:46:58;;;;;;;0.60;0.60;;;;;;;3.79;43.24;96960.06;29373;242;63004;-66
2022/03/12 00:47:30;;;;;;;0.60;0.60;;;;;;;3.77;43.08;96956.81;29373;212;63009;-63
2022/03/12 00:48:02;;;;;;;0.80;0.80;;;;;;;3.77;43.40;96951.44;29371;218;64009;-65
2022/03/12 00:48:34;;;;;;;0.60;0.60;;;;;;;3.77;43.35;96956.81;29373;202;63004;-66
2022/03/12 00:49:05;;;;;;;0.50;0.50;;;;;;;3.75;43.59;96958.94;29373;213;63004;-64
2022/03/12 00:49:37;;;;;;;0.50;0.50;;;;;;;3.75;43.28;96964.28;29373;204;63008;-66
2022/03/12 00:50:09;;;;;;;0.50;0.50;;;;;;;3.76;43.50;96960.56;29373;251;63005;-65
2022/03/12 00:50:40;;;;;;;0.57;0.57;;;;;;;3.75;43.45;96958.94;29373;225;63009;-66
2022/03/12 00:51:12;;;;;;;0.52;0.52;;;;;;;3.76;43.24;96957.88;29373;216;63009;-65
2022/03/12 00:51:44;;;;;;;0.93;0.93;;;;;;;3.76;43.64;96955.19;29373;209;63018;-63
2022/03/12 00:52:17;;;;;;;0.50;0.50;;;;;;;3.77;43.52;96962.19;29373;298;63005;-66
2022/03/12 00:52:48;;;;;;;0.60;0.60;;;;;;;3.78;43.23;96958.44;29373;223;63009;-66
2022/03/12 00:53:20;;;;;;;0.60;0.60;;;;;;;3.77;43.10;96964.88;29371;203;64009;-66
2022/03/12 00:53:52;;;;;;;0.60;0.60;;;;;;;3.75;43.46;96953.56;29373;292;63009;-63
2022/03/12 00:54:25;;;;;;;0.55;0.55;;;;;;;3.73;43.46;96949.50;29373;206;63004;-66
2022/03/12 00:54:56;;;;;;;0.60;0.60;;;;;;;3.70;43.68;96959.66;29373;271;63009;-65
2022/03/12 00:55:28;;;;;;;0.50;0.50;;;;;;;3.69;43.78;96957.22;29373;214;63004;-63
2022/03/12 00:56:03;;;;;;;0.57;0.57;;;;;;;3.67;43.72;96962.84;29373;229;63009;-66
2022/03/12 00:56:34;;;;;;;0.82;0.82;;;;;;;3.68;43.59;96952.91;29373;209;63004;-64
2022/03/12 00:57:10;;;;;;;0.60;0.60;;;;;;;3.69;43.50;96949.19;29373;229;63008;-65
2022/03/12 00:57:42;;;;;;;0.50;0.50;;;;;;;3.71;43.53;96947.06;29373;198;63005;-65
2022/03/12 00:58:17;;;;;;;0.60;0.60;;;;;;;3.74;43.21;96951.13;29373;275;63009;-62
2022/03/12 00:58:50;;;;;;;0.50;0.50;;;;;;;3.75;43.05;96947.38;29372;226;63009;-65
2022/03/12 00:59:21;;;;;;;0.60;0.60;;;;;;;3.76;43.08;96949.00;29373;306;63009;-64
2022/03/12 00:59:52;;;;;;;0.70;0.70;;;;;;;3.79;43.13;96949.31;29373;269;63005;-66
2022/03/12 01:00:26;;;;;;;0.60;0.60;;;;;;;3.79;43.09;96949.31;29373;261;63009;-66
2022/03/12 01:00:57;;;;;;;1.40;1.30;;;;;;;3.79;42.79;96946.63;29373;215;63004;-64
2022/03/12 01:01:28;;;;;;;2.30;2.25;;;;;;;3.78;43.17;96946.88;29373;242;63009;-69
2022/03/12 01:01:59;;;;;;;0.60;0.60;;;;;;;3.77;43.12;96945.25;29373;218;63004;-65
2022/03/12 01:02:30;;;;;;;0.50;0.50;;;;;;;3.76;42.93;96949.00;29373;214;63009;-66
2022/03/12 01:03:02;;;;;;;0.50;0.50;;;;;;;3.74;43.10;96940.38;29372;270;64004;-65
2022/03/12 01:03:33;;;;;;;0.50;0.50;;;;;;;3.73;43.14;96934.22;29373;215;63008;-63
2022/03/12 01:04:05;;;;;;;0.60;0.60;;;;;;;3.72;43.20;96937.13;29371;227;64009;-64
2022/03/12 01:04:37;;;;;;;3.05;2.95;;;;;;;3.70;43.30;96937.37;29373;200;63009;-66
2022/03/12 01:05:10;;;;;;;1.05;1.05;;;;;;;3.72;43.05;96940.62;29373;198;63005;-66
2022/03/12 01:06:01;;;;;;;0.50;0.50;;;;;;;3.74;42.97;96941.19;29373;202;63009;-67
2022/03/12 01:06:37;;;;;;;0.60;0.60;;;;;;;3.75;42.87;96937.47;29395;203;63005;-63
2022/03/12 01:07:13;;;;;;;1.30;1.30;;;;;;;3.76;43.05;96928.34;29395;203;63009;-68
2022/03/12 01:07:45;;;;;;;0.60;0.60;;;;;;;3.76;43.02;96938.28;29373;234;63005;-64
2022/03/12 01:08:21;;;;;;;0.60;0.60;;;;;;;3.75;42.85;96937.47;29371;208;64013;-65
2022/03/12 01:08:52;;;;;;;0.57;0.57;;;;;;;3.73;42.98;96938.75;29373;252;63004;-62
2022/03/12 01:09:24;;;;;;;0.60;0.60;;;;;;;3.72;43.18;96943.31;29373;264;63009;-64
2022/03/12 01:09:59;;;;;;;0.50;0.50;;;;;;;3.73;42.87;96933.41;29373;229;63004;-65
2022/03/12 01:10:30;;;;;;;0.85;0.85;;;;;;;3.70;42.94;96932.03;29373;279;63009;-67
2022/03/12 01:11:07;;;;;;;0.60;0.60;;;;;;;3.70;43.19;96940.06;29373;198;63004;-63
2022/03/12 01:11:44;;;;;;;0.80;0.80;;;;;;;3.68;42.93;96942.19;29373;212;63009;-65
2022/03/12 01:12:15;;;;;;;0.60;0.60;;;;;;;3.65;42.96;96937.31;29373;220;63001;-66
2022/03/12 01:12:49;;;;;;;6.20;5.97;;;;;;;3.63;43.27;96934.88;29373;197;63018;-65
2022/03/12 01:13:21;;;;;;;0.60;0.60;;;;;;;3.60;43.42;96938.06;29371;250;64009;-63
2022/03/12 01:13:52;;;;;;;0.60;0.60;;;;;;;3.60;43.35;96939.91;29373;216;63009;-63
2022/03/12 01:14:24;;;;;;;0.60;0.60;;;;;;;3.58;43.40;96948.22;29373;203;63005;-63
2022/03/12 01:14:57;;;;;;;0.60;0.60;;;;;;;3.59;43.58;96944.47;29373;250;63009;-66
2022/03/12 01:15:28;;;;;;;0.60;0.60;;;;;;;3.59;43.64;96940.97;29373;198;63005;-66
2022/03/12 01:16:00;;;;;;;0.60;0.60;;;;;;;3.59;43.58;96943.66;29373;199;63009;-65
2022/03/12 01:16:31;;;;;;;0.60;0.60;;;;;;;3.57;43.36;96943.09;29373;229;63008;-64
2022/03/12 01:17:03;;;;;;;0.52;0.52;;;;;;;3.55;43.67;96942.53;29373;202;63009;-65
2022/03/12 01:17:34;;;;;;;0.60;0.60;;;;;;;3.54;43.57;96938.22;29373;286;63004;-65
2022/03/12 01:18:15;;;;;;;0.50;0.50;;;;;;;3.52;43.55;96940.34;29371;244;64013;-66
2022/03/12 01:18:46;;;;;;;0.60;0.60;;;;;;;3.51;43.38;96942.22;29395;210;63004;-63
2022/03/12 01:19:17;;;;;;;0.60;0.60;;;;;;;3.52;43.51;96951.06;29395;233;63009;-63
2022/03/12 01:19:49;;;;;;;0.50;0.50;;;;;;;3.50;43.46;96939.78;29373;200;63005;-67
2022/03/12 01:20:22;;;;;;;0.60;0.60;;;;;;;3.51;43.48;96944.06;29373;202;63009;-66
2022/03/12 01:20:54;;;;;;;0.50;0.50;;;;;;;3.51;43.70;96936.03;29373;216;63005;-64
2022/03/12 01:21:26;;;;;;;0.60;0.60;;;;;;;3.51;43.29;96936.03;29373;197;63009;-65
2022/03/12 01:21:57;;;;;;;0.50;0.50;;;;;;;3.52;43.65;96937.66;29373;220;63005;-63
2022/03/12 01:22:33;;;;;;;0.60;0.60;;;;;;;3.51;43.34;96931.47;29373;252;63009;-65
2022/03/12 01:23:06;;;;;;;0.60;0.60;;;;;;;3.53;43.68;96936.59;29371;234;64020;-65
2022/03/12 01:23:38;;;;;;;0.50;0.50;;;;;;;3.51;43.66;96930.66;29373;219;63009;-64
2022/03/12 01:24:09;;;;;;;0.60;0.60;;;;;;;3.56;43.13;96928.87;29373;202;63004;-65
2022/03/12 01:24:41;;;;;;;0.60;0.60;;;;;;;3.55;43.33;96932.62;29373;216;63009;-63
2022/03/12 01:25:13;;;;;;;1.08;1.08;;;;;;;3.53;43.14;96936.59;29371;211;64009;-64
2022/03/12 01:25:47;;;;;;;0.60;0.60;;;;;;;3.47;43.92;96940.25;29373;251;63008;-62
2022/03/12 01:26:21;;;;;;;4.62;4.45;;;;;;;3.41;43.71;96933.22;29373;220;63004;-65
2022/03/12 01:26:52;;;;;;;0.60;0.60;;;;;;;3.37;44.49;96939.06;29373;246;63009;-66
2022/03/12 01:27:23;;;;;;;0.60;0.60;;;;;;;3.35;44.23;96938.50;29373;204;63005;-63
2022/03/12 01:27:55;;;;;;;0.60;0.60;;;;;;;3.34;44.31;96941.44;29371;238;64014;-66
2022/03/12 01:28:26;;;;;;;0.60;0.60;;;;;;;3.31;44.71;96942.72;29373;246;63005;-64
2022/03/12 01:28:57;;;;;;;0.60;0.60;;;;;;;3.30;44.40;96937.63;29373;289;63009;-67
2022/03/12 01:29:28;;;;;;;0.60;0.60;;;;;;;3.28;44.64;96937.84;29373;206;63005;-63
2022/03/12 01:30:00;;;;;;;0.50;0.50;;;;;;;3.27;44.83;96941.59;29373;217;63009;-67
2022/03/12 01:30:32;;;;;;;0.50;0.50;;;;;;;3.25;44.65;96941.03;29373;209;63005;-67
2022/03/12 01:31:04;;;;;;;0.57;0.57;;;;;;;3.25;44.77;96943.72;29373;218;63009;-66
2022/03/12 01:31:37;;;;;;;0.50;0.50;;;;;;;3.25;44.43;96943.72;29373;222;63000;-67
2022/03/12 01:32:09;;;;;;;0.60;0.60;;;;;;;3.23;44.41;96940.47;29373;243;63009;-65
2022/03/12 01:32:41;;;;;;;0.62;0.62;;;;;;;3.26;44.24;96944.53;29373;206;63004;-66
2022/03/12 01:33:12;;;;;;;0.60;0.60;;;;;;;3.26;44.15;96948.00;29371;202;64013;-66
2022/03/12 01:33:44;;;;;;;0.88;0.88;;;;;;;3.25;44.14;96940.22;29373;220;63004;-63
2022/03/12 01:34:15;;;;;;;0.60;0.60;;;;;;;3.23;44.25;96940.47;29373;221;63009;-64
2022/03/12 01:34:47;;;;;;;0.60;0.60;;;;;;;3.21;45.02;96947.94;29373;222;63005;-67
2022/03/12 01:35:18;;;;;;;0.60;0.60;;;;;;;3.18;44.96;96952.97;29373;228;63009;-67
2022/03/12 01:35:49;;;;;;;0.60;0.60;;;;;;;3.14;45.23;96952.63;29373;244;63005;-67
2022/03/12 01:36:22;;;;;;;0.60;0.60;;;;;;;3.12;45.04;96941.34;29373;198;63009;-64
2022/03/12 01:36:53;;;;;;;0.55;0.55;;;;;;;3.11;45.32;96944.31;29373;206;63005;-64
2022/03/12 01:37:25;;;;;;;0.60;0.60;;;;;;;3.08;45.37;96948.28;29373;223;63009;-64
2022/03/12 01:37:56;;;;;;;0.60;0.60;;;;;;;3.09;45.19;96954.44;29373;198;63005;-67
2022/03/12 01:38:50;;;;;;;0.60;0.60;;;;;;;3.10;45.17;96951.53;29371;211;64013;-64
2022/03/12 01:39:21;;;;;;;0.60;0.60;;;;;;;3.13;44.68;96950.19;29373;218;63004;-65
2022/03/12 01:39:52;;;;;;;0.60;0.60;;;;;;;3.14;44.51;96944.59;29373;215;63009;-67
2022/03/12 01:40:24;;;;;;;0.60;0.60;;;;;;;3.15;44.78;96940.84;29373;245;63004;-66
2022/03/12 01:40:55;;;;;;;0.60;0.60;;;;;;;3.15;45.08;96956.94;29373;230;63008;-64
2022/03/12 01:41:30;;;;;;;0.82;0.82;;;;;;;3.13;45.00;96950.19;29373;246;63004;-67
2022/03/12 01:42:07;;;;;;;0.50;0.50;;;;;;;3.15;44.70;96942.72;29373;227;63009;-66
2022/03/12 01:42:38;;;;;;;0.60;0.60;;;;;;;3.15;44.65;96945.41;29373;197;63005;-63
2022/03/12 01:43:10;;;;;;;0.60;0.60;;;;;;;3.15;44.44;96954.25;29373;206;63009;-64
2022/03/12 01:43:43;;;;;;;0.60;0.60;;;;;;;3.13;44.65;96952.87;29371;235;64009;-65
2022/03/12 01:44:15;;;;;;;0.50;0.50;;;;;;;3.08;44.49;96953.63;29373;259;63009;-64
2022/03/12 01:44:46;;;;;;;1.02;1.02;;;;;;;3.08;44.69;96953.63;29373;213;63005;-67
2022/03/12 01:45:27;;;;;;;0.90;0.85;;;;;;;3.19;43.83;96947.38;29373;245;63009;-63
2022/03/12 01:46:01;;;;;;;1.15;1.15;;;;;;;3.21;43.86;96950.63;29395;234;63004;-65
2022/03/12 01:46:37;;;;;;;0.60;0.60;;;;;;;3.21;44.02;96945.25;29395;230;63009;-67
2022/03/12 01:47:10;;;;;;;0.60;0.60;;;;;;;3.24;43.70;96947.44;29373;199;63004;-65
2022/03/12 01:47:42;;;;;;;0.60;0.60;;;;;;;3.25;43.63;96950.94;29373;216;63009;-64
2022/03/12 01:48:13;;;;;;;0.52;0.52;;;;;;;3.21;44.16;96953.28;29373;221;63004;-66
2022/03/12 01:48:50;;;;;;;0.60;0.60;;;;;;;3.19;43.90;96950.03;29371;245;64013;-66
2022/03/12 01:49:23;;;;;;;0.60;0.60;;;;;;;3.21;43.79;96947.13;29373;264;63005;-67
2022/03/12 01:49:55;;;;;;;0.60;0.60;;;;;;;3.21;43.83;96952.47;29372;219;64009;-65
2022/03/12 01:50:31;;;;;;;0.60;0.60;;;;;;;3.17;43.93;96949.47;29373;218;63005;-63
2022/03/12 01:51:03;;;;;;;0.60;0.60;;;;;;;3.15;43.73;96954.25;29373;265;63009;-70
2022/03/12 01:51:36;;;;;;;0.50;0.50;;;;;;;3.09;43.99;96951.78;29373;220;63005;-63
2022/03/12 01:52:08;;;;;;;0.50;0.50;;;;;;;3.05;43.94;96947.94;29372;202;63009;-63
2022/03/12 01:52:39;;;;;;;0.60;0.60;;;;;;;3.03;44.03;96950.88;29373;197;63005;-63
2022/03/12 01:53:14;;;;;;;0.70;0.70;;;;;;;3.04;43.96;96947.13;29373;207;63009;-67
2022/03/12 01:53:47;;;;;;;0.60;0.60;;;;;;;3.03;44.17;96948.19;29371;234;64009;-65
2022/03/12 01:54:22;;;;;;;25.67;12.60;;;;;;;3.00;44.16;96951.34;29363;218;65009;-65
2022/03/12 01:54:55;;;;;;;0.60;0.60;;;;;;;2.99;44.29;96949.72;29373;306;63009;-65
2022/03/12 01:55:31;;;;;;;0.50;0.50;;;;;;;2.98;44.37;96948.09;29373;222;63009;-66
2022/03/12 01:56:03;;;;;;;0.60;0.60;;;;;;;2.96;44.27;96944.84;29373;232;63004;-66
2022/03/12 01:56:35;;;;;;;0.77;0.75;;;;;;;2.96;44.21;96944.84;29373;205;63008;-66
2022/03/12 01:57:09;;;;;;;0.60;0.60;;;;;;;2.93;44.60;96948.00;29373;239;63005;-67
2022/03/12 01:57:40;;;;;;;0.60;0.60;;;;;;;2.91;44.39;96942.09;29373;212;63009;-65
2022/03/12 01:58:11;;;;;;;0.60;0.60;;;;;;;2.89;44.42;96938.84;29373;244;63006;-65
2022/03/12 01:58:47;;;;;;;0.60;0.60;;;;;;;2.89;44.48;96941.50;29373;214;63009;-67
2022/03/12 01:59:19;;;;;;;0.60;0.60;;;;;;;2.87;44.81;96939.06;29371;206;64009;-64
2022/03/12 01:59:51;;;;;;;0.62;0.62;;;;;;;2.86;44.63;96933.94;29373;225;63009;-65
2022/03/12 02:00:25;;;;;;;2.20;1.52;;;;;;;2.87;44.76;96935.59;29373;255;63004;-65
2022/03/12 02:00:58;;;;;;;0.60;0.60;;;;;;;2.81;44.45;96931.19;29373;249;63009;-66
2022/03/12 02:01:30;;;;;;;0.50;0.50;;;;;;;2.84;44.73;96936.87;29373;210;63004;-64
2022/03/12 02:02:08;;;;;;;0.60;0.60;;;;;;;2.83;44.40;96931.75;29373;209;63009;-65
2022/03/12 02:02:44;;;;;;;0.60;0.60;;;;;;;2.85;44.35;96932.31;29373;250;63004;-64
2022/03/12 02:03:23;;;;;;;0.50;0.50;;;;;;;2.87;44.67;96935.59;29373;196;63008;-64
2022/03/12 02:04:00;;;;;;;0.60;0.60;;;;;;;2.89;44.39;96928.94;29373;208;63004;-64
2022/03/12 02:04:31;;;;;;;0.60;0.60;;;;;;;2.91;44.35;96937.53;29371;235;64014;-65
2022/03/12 02:05:05;;;;;;;0.60;0.60;;;;;;;2.91;44.32;96936.72;29373;217;63005;-64
2022/03/12 02:05:38;;;;;;;0.60;0.60;;;;;;;2.88;44.36;96937.22;29373;267;63009;-66
2022/03/12 02:06:10;;;;;;;0.60;0.60;;;;;;;2.85;44.51;96932.31;29373;213;63005;-64
2022/03/12 02:06:42;;;;;;;0.60;0.60;;;;;;;2.84;44.32;96933.38;29373;203;63009;-63
2022/03/12 02:07:14;;;;;;;0.60;0.60;;;;;;;2.86;44.32;96940.12;29373;329;63005;-65
2022/03/12 02:07:46;;;;;;;0.60;0.60;;;;;;;2.87;44.05;96935.59;29373;202;63009;-66
2022/03/12 02:08:19;;;;;;;0.60;0.60;;;;;;;2.83;44.34;96929.87;29373;274;63004;-63
2022/03/12 02:08:53;;;;;;;0.50;0.50;;;;;;;2.86;44.21;96926.72;29371;232;64013;-65
2022/03/12 02:09:25;;;;;;;0.60;0.60;;;;;;;2.85;44.57;96935.00;29373;322;63004;-64
2022/03/12 02:09:57;;;;;;;0.60;0.60;;;;;;;2.83;44.14;96940.59;29373;250;63009;-66
2022/03/12 02:10:29;;;;;;;0.52;0.52;;;;;;;2.83;44.53;96937.94;29373;200;63010;-66
2022/03/12 02:11:02;;;;;;;0.60;0.60;;;;;;;2.83;44.50;96939.78;29373;197;63009;-63
2022/03/12 02:11:33;;;;;;;0.60;0.60;;;;;;;2.81;44.29;96937.34;29371;276;64023;-66
2022/03/12 02:12:06;;;;;;;0.60;0.60;;;;;;;2.83;44.38;96934.44;29373;227;63009;-66
2022/03/12 02:12:38;;;;;;;0.60;0.60;;;;;;;2.81;44.79;96936.53;29373;213;63001;-66
2022/03/12 02:13:11;;;;;;;0.60;0.60;;;;;;;2.81;44.35;96936.53;29373;286;63009;-66
2022/03/12 02:13:42;;;;;;;0.60;0.60;;;;;;;2.79;44.76;96933.28;29373;246;63005;-65
2022/03/12 02:14:21;;;;;;;0.60;0.60;;;;;;;2.78;44.39;96934.34;29371;203;64013;-66
2022/03/12 02:14:53;;;;;;;0.60;0.60;;;;;;;2.75;44.92;96938.34;29373;232;63005;-67
2022/03/12 02:15:25;;;;;;;0.60;0.60;;;;;;;2.75;44.87;96932.19;29373;202;63009;-65
2022/03/12 02:16:08;;;;;;;0.60;0.60;;;;;;;2.74;45.35;96943.94;29373;198;63004;-64
2022/03/12 02:16:58;;;;;;;0.60;0.60;;;;;;;2.72;45.30;96938.03;29371;281;64013;-65
2022/03/12 02:17:29;;;;;;;0.60;0.60;;;;;;;2.71;45.23;96942.56;29373;278;63004;-64
2022/03/12 02:18:00;;;;;;;0.60;0.60;;;;;;;2.72;44.98;96943.38;29373;353;63008;-63
2022/03/12 02:18:31;;;;;;;0.60;0.60;;;;;;;2.71;45.11;96931.03;29373;231;63004;-66
2022/03/12 02:19:03;;;;;;;0.60;0.60;;;;;;;2.71;45.21;96941.75;29371;197;64014;-63
2022/03/12 02:19:35;;;;;;;0.70;0.70;;;;;;;2.71;45.69;96941.75;29373;271;63005;-66
2022/03/12 02:20:07;;;;;;;0.60;0.60;;;;;;;2.71;45.49;96939.06;29373;222;63009;-68
2022/03/12 02:20:38;;;;;;;0.60;0.60;;;;;;;2.71;45.49;96947.91;29373;221;63009;-64
2022/03/12 02:21:10;;;;;;;0.60;0.60;;;;;;;2.72;45.55;96938.03;29373;202;63009;-65
2022/03/12 02:21:57;;;;;;;0.60;0.60;;;;;;;2.69;45.52;96940.12;29373;205;63005;-64
2022/03/12 02:22:28;;;;;;;0.60;0.60;;;;;;;2.70;45.44;96938.25;29373;257;63009;-65
2022/03/12 02:22:59;;;;;;;0.60;0.60;;;;;;;2.72;45.55;96938.03;29373;241;63004;-65
2022/03/12 02:23:48;;;;;;;0.55;0.55;;;;;;;2.72;45.41;96938.03;29371;209;64013;-67
2022/03/12 02:24:23;;;;;;;2.45;2.35;;;;;;;2.78;44.83;96937.84;29373;241;63014;-65
2022/03/12 02:24:54;;;;;;;0.60;0.60;;;;;;;2.78;44.61;96937.03;29371;223;64013;-64
2022/03/12 02:25:34;;;;;;;0.60;0.60;;;;;;;2.80;44.83;96934.91;29373;208;63004;-66
2022/03/12 02:26:05;;;;;;;0.60;0.60;;;;;;;2.82;44.54;96938.97;29373;237;63008;-65
2022/03/12 02:26:38;;;;;;;0.60;0.60;;;;;;;2.82;44.79;96932.81;29373;198;63005;-67
2022/03/12 02:27:10;;;;;;;0.60;0.60;;;;;;;2.83;44.56;96937.13;29373;219;63009;-67
2022/03/12 02:27:42;;;;;;;0.60;0.60;;;;;;;2.81;44.62;96936.53;29373;210;63005;-65
2022/03/12 02:28:19;;;;;;;0.50;0.50;;;;;;;2.80;44.78;96934.91;29373;211;63005;-65
2022/03/12 02:28:50;;;;;;;0.77;0.77;;;;;;;2.80;45.11;96937.59;29373;200;63005;-66
2022/03/12 02:29:23;;;;;;;0.60;0.60;;;;;;;2.78;45.56;96935.16;29373;203;63009;-67
2022/03/12 02:29:59;;;;;;;0.60;0.60;;;;;;;2.78;45.56;96942.38;29371;204;64009;-66
2022/03/12 02:30:47;;;;;;;1.35;1.35;;;;;;;2.78;45.28;96945.06;29373;281;63009;-65
2022/03/12 02:31:21;;;;;;;0.60;0.60;;;;;;;2.79;45.56;96950.19;29373;323;63004;-67
2022/03/12 02:31:58;;;;;;;0.60;0.60;;;;;;;2.80;45.67;96956.34;29373;214;63009;-68
2022/03/12 02:32:30;;;;;;;0.60;0.60;;;;;;;2.80;45.54;96959.84;29371;220;64009;-66
2022/03/12 02:33:04;;;;;;;0.57;0.57;;;;;;;2.79;46.05;96960.91;29373;246;63008;-63
2022/03/12 02:33:35;;;;;;;0.50;0.50;;;;;;;2.79;45.95;96965.44;29373;265;63004;-63
2022/03/12 02:34:10;;;;;;;0.60;0.60;;;;;;;2.79;45.81;96970.81;29373;225;63009;-67
2022/03/12 02:34:49;;;;;;;0.60;0.60;;;;;;;2.85;46.35;96969.84;29373;230;63005;-63
2022/03/12 02:35:24;;;;;;;0.60;0.60;;;;;;;2.85;46.24;96975.22;29373;222;63009;-66
2022/03/12 02:35:57;;;;;;;0.60;0.60;;;;;;;2.80;46.13;96973.25;29373;218;63005;-66
2022/03/12 02:36:29;;;;;;;0.60;0.60;;;;;;;2.75;46.02;96972.38;29373;207;63009;-67
2022/03/12 02:37:00;;;;;;;1.10;1.10;;;;;;;2.71;46.22;96963.19;29373;202;63005;-66
2022/03/12 02:37:34;;;;;;;0.60;0.60;;;;;;;2.71;46.34;96955.16;29371;210;64013;-66
2022/03/12 02:38:07;;;;;;;0.60;0.60;;;;;;;2.67;46.21;96963.66;29373;225;63004;-62
2022/03/12 02:38:40;;;;;;;0.60;0.60;;;;;;;2.67;45.95;96958.31;29373;282;63009;-66
2022/03/12 02:39:13;;;;;;;0.65;0.65;;;;;;;2.66;46.06;96955.88;29373;234;63004;-65
2022/03/12 02:39:44;;;;;;;0.60;0.60;;;;;;;2.64;45.87;96964.16;29372;212;63009;-64
2022/03/12 02:40:16;;;;;;;0.60;0.60;;;;;;;2.63;45.88;96969.75;29373;221;63004;-63